sensor_id;sensor_type;location;lat;lon;timestamp;P1;durP1;ratioP1;P2;durP2;ratioP2
6529;SDS011;3298;42.688;23.366;2022-08-25T00:01:13;14.87;;;7.10;;
6529;SDS011;3298;42.688;23.366;2022-08-25T00:03:41;15.13;;;7.37;;
6529;SDS011;3298;42.688;23.366;2022-08-25T00:06:09;14.10;;;7.03;;
6529;SDS011;3298;42.688;23.366;2022-08-25T00:08:39;11.77;;;6.83;;
6529;SDS011;3298;42.688;23.366;2022-08-25T00:11:06;14.93;;;8.50;;
6529;SDS011;3298;42.688;23.366;2022-08-25T00:13:36;22.80;;;8.17;;
6529;SDS011;3298;42.688;23.366;2022-08-25T00:16:03;24.33;;;8.73;;
6529;SDS011;3298;42.688;23.366;2022-08-25T00:18:30;16.33;;;7.27;;
6529;SDS011;3298;42.688;23.366;2022-08-25T00:20:57;17.40;;;7.70;;
6529;SDS011;3298;42.688;23.366;2022-08-25T00:23:24;21.30;;;7.10;;
6529;SDS011;3298;42.688;23.366;2022-08-25T00:25:52;19.27;;;8.40;;
6529;SDS011;3298;42.688;23.366;2022-08-25T00:28:19;12.50;;;7.43;;
6529;SDS011;3298;42.688;23.366;2022-08-25T00:30:46;17.37;;;6.50;;
6529;SDS011;3298;42.688;23.366;2022-08-25T00:33:13;18.27;;;6.80;;
6529;SDS011;3298;42.688;23.366;2022-08-25T00:35:40;16.23;;;7.70;;
6529;SDS011;3298;42.688;23.366;2022-08-25T00:38:08;12.80;;;7.60;;
6529;SDS011;3298;42.688;23.366;2022-08-25T00:40:36;14.00;;;7.10;;
6529;SDS011;3298;42.688;23.366;2022-08-25T00:43:06;12.23;;;7.47;;
6529;SDS011;3298;42.688;23.366;2022-08-25T00:45:35;17.03;;;7.67;;
6529;SDS011;3298;42.688;23.366;2022-08-25T00:48:02;19.00;;;6.10;;
6529;SDS011;3298;42.688;23.366;2022-08-25T00:50:29;13.90;;;6.73;;
6529;SDS011;3298;42.688;23.366;2022-08-25T00:52:59;10.17;;;6.57;;
6529;SDS011;3298;42.688;23.366;2022-08-25T00:55:30;21.90;;;6.87;;
6529;SDS011;3298;42.688;23.366;2022-08-25T00:58:01;12.93;;;6.70;;
6529;SDS011;3298;42.688;23.366;2022-08-25T01:00:34;13.30;;;6.83;;
6529;SDS011;3298;42.688;23.366;2022-08-25T01:03:03;8.57;;;5.80;;
6529;SDS011;3298;42.688;23.366;2022-08-25T01:05:31;9.90;;;6.57;;
6529;SDS011;3298;42.688;23.366;2022-08-25T01:07:58;14.60;;;7.30;;
6529;SDS011;3298;42.688;23.366;2022-08-25T01:10:28;11.47;;;6.57;;
6529;SDS011;3298;42.688;23.366;2022-08-25T01:12:57;9.97;;;5.93;;
6529;SDS011;3298;42.688;23.366;2022-08-25T01:15:27;15.47;;;6.40;;
6529;SDS011;3298;42.688;23.366;2022-08-25T01:17:56;16.00;;;6.70;;
6529;SDS011;3298;42.688;23.366;2022-08-25T01:20:25;7.40;;;5.73;;
6529;SDS011;3298;42.688;23.366;2022-08-25T01:22:55;17.67;;;7.30;;
6529;SDS011;3298;42.688;23.366;2022-08-25T01:25:24;17.47;;;7.43;;
6529;SDS011;3298;42.688;23.366;2022-08-25T01:27:58;11.93;;;7.77;;
6529;SDS011;3298;42.688;23.366;2022-08-25T01:30:25;18.67;;;7.67;;
6529;SDS011;3298;42.688;23.366;2022-08-25T01:32:53;10.80;;;7.30;;
6529;SDS011;3298;42.688;23.366;2022-08-25T01:35:20;15.13;;;7.33;;
6529;SDS011;3298;42.688;23.366;2022-08-25T01:37:46;23.50;;;8.50;;
6529;SDS011;3298;42.688;23.366;2022-08-25T01:40:15;12.87;;;7.40;;
6529;SDS011;3298;42.688;23.366;2022-08-25T01:42:46;15.83;;;7.57;;
6529;SDS011;3298;42.688;23.366;2022-08-25T01:45:24;24.13;;;7.70;;
6529;SDS011;3298;42.688;23.366;2022-08-25T01:47:51;11.00;;;7.47;;
6529;SDS011;3298;42.688;23.366;2022-08-25T01:50:18;9.57;;;6.73;;
6529;SDS011;3298;42.688;23.366;2022-08-25T01:52:47;28.37;;;7.43;;
6529;SDS011;3298;42.688;23.366;2022-08-25T01:55:18;18.93;;;7.93;;
6529;SDS011;3298;42.688;23.366;2022-08-25T01:57:45;11.40;;;6.57;;
6529;SDS011;3298;42.688;23.366;2022-08-25T02:00:13;8.03;;;7.23;;
6529;SDS011;3298;42.688;23.366;2022-08-25T02:02:42;16.83;;;7.53;;
6529;SDS011;3298;42.688;23.366;2022-08-25T02:05:08;18.33;;;8.00;;
6529;SDS011;3298;42.688;23.366;2022-08-25T02:07:37;14.47;;;6.83;;
6529;SDS011;3298;42.688;23.366;2022-08-25T02:10:04;12.80;;;6.90;;
6529;SDS011;3298;42.688;23.366;2022-08-25T02:12:34;12.30;;;6.20;;
6529;SDS011;3298;42.688;23.366;2022-08-25T02:15:01;24.53;;;9.13;;
6529;SDS011;3298;42.688;23.366;2022-08-25T02:17:28;15.33;;;6.67;;
6529;SDS011;3298;42.688;23.366;2022-08-25T02:19:55;12.67;;;6.17;;
6529;SDS011;3298;42.688;23.366;2022-08-25T02:22:22;18.83;;;5.97;;
6529;SDS011;3298;42.688;23.366;2022-08-25T02:24:50;13.93;;;5.77;;
6529;SDS011;3298;42.688;23.366;2022-08-25T02:27:16;14.80;;;5.80;;
6529;SDS011;3298;42.688;23.366;2022-08-25T02:29:45;21.00;;;6.77;;
6529;SDS011;3298;42.688;23.366;2022-08-25T02:32:12;13.40;;;6.30;;
6529;SDS011;3298;42.688;23.366;2022-08-25T02:34:39;14.13;;;6.67;;
6529;SDS011;3298;42.688;23.366;2022-08-25T02:37:06;10.47;;;5.67;;
6529;SDS011;3298;42.688;23.366;2022-08-25T02:39:33;15.43;;;6.40;;
6529;SDS011;3298;42.688;23.366;2022-08-25T02:42:00;22.77;;;6.20;;
6529;SDS011;3298;42.688;23.366;2022-08-25T02:44:27;13.60;;;5.07;;
6529;SDS011;3298;42.688;23.366;2022-08-25T02:46:57;12.73;;;6.07;;
6529;SDS011;3298;42.688;23.366;2022-08-25T02:49:24;14.43;;;6.00;;
6529;SDS011;3298;42.688;23.366;2022-08-25T02:51:51;15.00;;;5.37;;
6529;SDS011;3298;42.688;23.366;2022-08-25T02:54:18;16.03;;;5.77;;
6529;SDS011;3298;42.688;23.366;2022-08-25T02:56:47;13.43;;;7.03;;
6529;SDS011;3298;42.688;23.366;2022-08-25T02:59:14;13.93;;;6.17;;
6529;SDS011;3298;42.688;23.366;2022-08-25T03:01:42;10.00;;;5.63;;
6529;SDS011;3298;42.688;23.366;2022-08-25T03:04:10;17.03;;;5.33;;
6529;SDS011;3298;42.688;23.366;2022-08-25T03:06:37;26.80;;;7.97;;
6529;SDS011;3298;42.688;23.366;2022-08-25T03:09:05;14.87;;;5.73;;
6529;SDS011;3298;42.688;23.366;2022-08-25T03:11:32;20.50;;;6.33;;
6529;SDS011;3298;42.688;23.366;2022-08-25T03:13:58;5.90;;;5.00;;
6529;SDS011;3298;42.688;23.366;2022-08-25T03:16:25;6.73;;;5.57;;
6529;SDS011;3298;42.688;23.366;2022-08-25T03:18:52;19.07;;;5.63;;
6529;SDS011;3298;42.688;23.366;2022-08-25T03:21:20;7.53;;;5.97;;
6529;SDS011;3298;42.688;23.366;2022-08-25T03:23:47;12.07;;;5.57;;
6529;SDS011;3298;42.688;23.366;2022-08-25T03:26:14;19.33;;;6.70;;
6529;SDS011;3298;42.688;23.366;2022-08-25T03:28:59;13.03;;;6.07;;
6529;SDS011;3298;42.688;23.366;2022-08-25T03:31:29;7.83;;;5.17;;
6529;SDS011;3298;42.688;23.366;2022-08-25T03:33:57;14.10;;;5.60;;
6529;SDS011;3298;42.688;23.366;2022-08-25T03:36:25;15.93;;;5.93;;
6529;SDS011;3298;42.688;23.366;2022-08-25T03:38:53;10.03;;;6.97;;
6529;SDS011;3298;42.688;23.366;2022-08-25T03:41:21;12.60;;;7.20;;
6529;SDS011;3298;42.688;23.366;2022-08-25T03:43:49;11.00;;;6.37;;
6529;SDS011;3298;42.688;23.366;2022-08-25T03:46:17;11.63;;;6.20;;
6529;SDS011;3298;42.688;23.366;2022-08-25T03:48:46;15.20;;;5.97;;
6529;SDS011;3298;42.688;23.366;2022-08-25T03:51:17;11.83;;;5.50;;
6529;SDS011;3298;42.688;23.366;2022-08-25T03:53:47;15.10;;;5.97;;
6529;SDS011;3298;42.688;23.366;2022-08-25T03:56:14;13.27;;;6.63;;
6529;SDS011;3298;42.688;23.366;2022-08-25T03:58:41;15.63;;;5.83;;
6529;SDS011;3298;42.688;23.366;2022-08-25T04:01:08;11.73;;;5.87;;
6529;SDS011;3298;42.688;23.366;2022-08-25T04:03:35;9.07;;;5.50;;
6529;SDS011;3298;42.688;23.366;2022-08-25T04:06:02;23.33;;;6.40;;
6529;SDS011;3298;42.688;23.366;2022-08-25T04:08:31;22.20;;;6.53;;
6529;SDS011;3298;42.688;23.366;2022-08-25T04:10:59;12.50;;;6.07;;
6529;SDS011;3298;42.688;23.366;2022-08-25T04:13:31;16.57;;;7.53;;
6529;SDS011;3298;42.688;23.366;2022-08-25T04:15:58;8.17;;;5.87;;
6529;SDS011;3298;42.688;23.366;2022-08-25T04:18:25;9.97;;;6.37;;
6529;SDS011;3298;42.688;23.366;2022-08-25T04:20:58;25.33;;;6.67;;
6529;SDS011;3298;42.688;23.366;2022-08-25T04:23:27;8.97;;;5.87;;
6529;SDS011;3298;42.688;23.366;2022-08-25T04:25:54;12.30;;;6.07;;
6529;SDS011;3298;42.688;23.366;2022-08-25T04:28:22;15.97;;;6.53;;
6529;SDS011;3298;42.688;23.366;2022-08-25T04:30:49;14.47;;;5.87;;
6529;SDS011;3298;42.688;23.366;2022-08-25T04:33:15;10.53;;;6.20;;
6529;SDS011;3298;42.688;23.366;2022-08-25T04:35:45;7.23;;;6.30;;
6529;SDS011;3298;42.688;23.366;2022-08-25T04:38:13;16.30;;;6.83;;
6529;SDS011;3298;42.688;23.366;2022-08-25T04:40:40;18.57;;;6.50;;
6529;SDS011;3298;42.688;23.366;2022-08-25T04:43:07;9.80;;;6.13;;
6529;SDS011;3298;42.688;23.366;2022-08-25T04:45:36;13.03;;;5.53;;
6529;SDS011;3298;42.688;23.366;2022-08-25T04:48:03;13.07;;;6.23;;
6529;SDS011;3298;42.688;23.366;2022-08-25T04:50:30;19.03;;;6.83;;
6529;SDS011;3298;42.688;23.366;2022-08-25T04:52:57;22.70;;;6.60;;
6529;SDS011;3298;42.688;23.366;2022-08-25T04:55:24;17.70;;;6.63;;
6529;SDS011;3298;42.688;23.366;2022-08-25T04:57:51;8.73;;;5.37;;
6529;SDS011;3298;42.688;23.366;2022-08-25T05:00:18;16.90;;;6.70;;
6529;SDS011;3298;42.688;23.366;2022-08-25T05:02:46;6.97;;;6.37;;
6529;SDS011;3298;42.688;23.366;2022-08-25T05:05:13;11.80;;;5.77;;
6529;SDS011;3298;42.688;23.366;2022-08-25T05:07:40;13.57;;;5.93;;
6529;SDS011;3298;42.688;23.366;2022-08-25T05:10:07;10.77;;;5.47;;
6529;SDS011;3298;42.688;23.366;2022-08-25T05:12:34;9.70;;;5.50;;
6529;SDS011;3298;42.688;23.366;2022-08-25T05:15:00;6.90;;;5.50;;
6529;SDS011;3298;42.688;23.366;2022-08-25T05:17:49;8.50;;;5.80;;
6529;SDS011;3298;42.688;23.366;2022-08-25T05:20:16;12.07;;;7.20;;
6529;SDS011;3298;42.688;23.366;2022-08-25T05:22:43;13.90;;;6.03;;
6529;SDS011;3298;42.688;23.366;2022-08-25T05:25:11;7.70;;;5.77;;
6529;SDS011;3298;42.688;23.366;2022-08-25T05:27:38;15.77;;;7.13;;
6529;SDS011;3298;42.688;23.366;2022-08-25T05:30:06;13.50;;;6.53;;
6529;SDS011;3298;42.688;23.366;2022-08-25T05:32:34;9.00;;;6.53;;
6529;SDS011;3298;42.688;23.366;2022-08-25T05:35:02;11.20;;;6.63;;
6529;SDS011;3298;42.688;23.366;2022-08-25T05:37:30;24.07;;;7.20;;
6529;SDS011;3298;42.688;23.366;2022-08-25T05:39:58;15.43;;;6.17;;
6529;SDS011;3298;42.688;23.366;2022-08-25T05:42:25;17.13;;;6.77;;
6529;SDS011;3298;42.688;23.366;2022-08-25T05:44:52;13.47;;;5.83;;
6529;SDS011;3298;42.688;23.366;2022-08-25T05:47:19;19.50;;;6.80;;
6529;SDS011;3298;42.688;23.366;2022-08-25T05:49:46;11.67;;;6.30;;
6529;SDS011;3298;42.688;23.366;2022-08-25T05:52:15;14.13;;;6.17;;
6529;SDS011;3298;42.688;23.366;2022-08-25T05:54:42;9.63;;;7.23;;
6529;SDS011;3298;42.688;23.366;2022-08-25T05:57:09;12.20;;;6.40;;
6529;SDS011;3298;42.688;23.366;2022-08-25T05:59:35;6.57;;;5.80;;
6529;SDS011;3298;42.688;23.366;2022-08-25T06:02:02;9.37;;;5.67;;
6529;SDS011;3298;42.688;23.366;2022-08-25T06:04:47;7.50;;;5.93;;
6529;SDS011;3298;42.688;23.366;2022-08-25T06:07:15;10.77;;;5.83;;
6529;SDS011;3298;42.688;23.366;2022-08-25T06:09:42;13.93;;;8.90;;
6529;SDS011;3298;42.688;23.366;2022-08-25T06:12:10;14.30;;;6.63;;
6529;SDS011;3298;42.688;23.366;2022-08-25T06:14:37;11.37;;;7.93;;
6529;SDS011;3298;42.688;23.366;2022-08-25T06:17:04;15.47;;;8.97;;
6529;SDS011;3298;42.688;23.366;2022-08-25T06:19:30;11.47;;;7.40;;
6529;SDS011;3298;42.688;23.366;2022-08-25T06:21:57;7.70;;;6.37;;
6529;SDS011;3298;42.688;23.366;2022-08-25T06:24:26;14.40;;;6.40;;
6529;SDS011;3298;42.688;23.366;2022-08-25T06:26:54;12.07;;;6.47;;
6529;SDS011;3298;42.688;23.366;2022-08-25T06:29:21;8.70;;;6.63;;
6529;SDS011;3298;42.688;23.366;2022-08-25T06:31:48;14.33;;;7.23;;
6529;SDS011;3298;42.688;23.366;2022-08-25T06:34:15;17.80;;;7.80;;
6529;SDS011;3298;42.688;23.366;2022-08-25T06:36:42;7.33;;;6.60;;
6529;SDS011;3298;42.688;23.366;2022-08-25T06:39:09;19.67;;;8.13;;
6529;SDS011;3298;42.688;23.366;2022-08-25T06:41:37;13.93;;;6.00;;
6529;SDS011;3298;42.688;23.366;2022-08-25T06:44:04;17.37;;;7.20;;
6529;SDS011;3298;42.688;23.366;2022-08-25T06:46:31;9.33;;;6.67;;
6529;SDS011;3298;42.688;23.366;2022-08-25T06:48:59;13.67;;;6.67;;
6529;SDS011;3298;42.688;23.366;2022-08-25T06:51:27;24.00;;;6.57;;
6529;SDS011;3298;42.688;23.366;2022-08-25T06:53:54;14.27;;;6.27;;
6529;SDS011;3298;42.688;23.366;2022-08-25T06:56:20;14.77;;;6.77;;
6529;SDS011;3298;42.688;23.366;2022-08-25T06:58:52;17.63;;;8.50;;
6529;SDS011;3298;42.688;23.366;2022-08-25T07:01:21;16.07;;;6.80;;
6529;SDS011;3298;42.688;23.366;2022-08-25T07:03:50;11.00;;;6.20;;
6529;SDS011;3298;42.688;23.366;2022-08-25T07:06:21;7.70;;;6.23;;
6529;SDS011;3298;42.688;23.366;2022-08-25T07:08:49;11.30;;;6.20;;
6529;SDS011;3298;42.688;23.366;2022-08-25T07:11:15;13.03;;;6.70;;
6529;SDS011;3298;42.688;23.366;2022-08-25T07:13:46;13.77;;;6.70;;
6529;SDS011;3298;42.688;23.366;2022-08-25T07:16:15;12.80;;;5.67;;
6529;SDS011;3298;42.688;23.366;2022-08-25T07:18:42;12.97;;;6.00;;
6529;SDS011;3298;42.688;23.366;2022-08-25T07:21:10;20.00;;;5.90;;
6529;SDS011;3298;42.688;23.366;2022-08-25T07:23:37;19.77;;;7.77;;
6529;SDS011;3298;42.688;23.366;2022-08-25T07:26:08;19.37;;;5.93;;
6529;SDS011;3298;42.688;23.366;2022-08-25T07:28:36;8.53;;;6.03;;
6529;SDS011;3298;42.688;23.366;2022-08-25T07:31:03;13.63;;;6.10;;
6529;SDS011;3298;42.688;23.366;2022-08-25T07:33:32;15.77;;;7.53;;
6529;SDS011;3298;42.688;23.366;2022-08-25T07:35:59;9.43;;;6.03;;
6529;SDS011;3298;42.688;23.366;2022-08-25T07:38:25;16.10;;;6.40;;
6529;SDS011;3298;42.688;23.366;2022-08-25T07:40:59;6.70;;;5.70;;
6529;SDS011;3298;42.688;23.366;2022-08-25T07:43:27;18.73;;;6.27;;
6529;SDS011;3298;42.688;23.366;2022-08-25T07:45:54;18.40;;;5.87;;
6529;SDS011;3298;42.688;23.366;2022-08-25T07:48:20;11.00;;;6.03;;
6529;SDS011;3298;42.688;23.366;2022-08-25T07:50:49;11.33;;;5.77;;
6529;SDS011;3298;42.688;23.366;2022-08-25T07:53:16;18.13;;;5.40;;
6529;SDS011;3298;42.688;23.366;2022-08-25T07:55:42;15.60;;;6.80;;
6529;SDS011;3298;42.688;23.366;2022-08-25T07:58:09;8.27;;;5.10;;
6529;SDS011;3298;42.688;23.366;2022-08-25T08:00:36;9.87;;;6.13;;
6529;SDS011;3298;42.688;23.366;2022-08-25T08:03:06;17.60;;;6.40;;
6529;SDS011;3298;42.688;23.366;2022-08-25T08:05:34;14.10;;;5.77;;
6529;SDS011;3298;42.688;23.366;2022-08-25T08:08:03;9.43;;;5.10;;
6529;SDS011;3298;42.688;23.366;2022-08-25T08:10:30;12.93;;;4.80;;
6529;SDS011;3298;42.688;23.366;2022-08-25T08:12:57;15.93;;;5.10;;
6529;SDS011;3298;42.688;23.366;2022-08-25T08:15:24;25.67;;;4.60;;
6529;SDS011;3298;42.688;23.366;2022-08-25T08:17:51;17.20;;;5.83;;
6529;SDS011;3298;42.688;23.366;2022-08-25T08:20:18;12.17;;;4.77;;
6529;SDS011;3298;42.688;23.366;2022-08-25T08:22:44;16.57;;;5.43;;
6529;SDS011;3298;42.688;23.366;2022-08-25T08:25:13;11.00;;;4.83;;
6529;SDS011;3298;42.688;23.366;2022-08-25T08:27:40;22.13;;;5.77;;
6529;SDS011;3298;42.688;23.366;2022-08-25T08:30:09;14.67;;;4.17;;
6529;SDS011;3298;42.688;23.366;2022-08-25T08:32:36;9.60;;;4.33;;
6529;SDS011;3298;42.688;23.366;2022-08-25T08:35:03;17.87;;;4.30;;
6529;SDS011;3298;42.688;23.366;2022-08-25T08:37:31;12.77;;;4.33;;
6529;SDS011;3298;42.688;23.366;2022-08-25T08:39:58;12.50;;;4.30;;
6529;SDS011;3298;42.688;23.366;2022-08-25T08:42:32;18.70;;;4.07;;
6529;SDS011;3298;42.688;23.366;2022-08-25T08:45:19;19.47;;;4.70;;
6529;SDS011;3298;42.688;23.366;2022-08-25T08:48:14;16.17;;;4.20;;
6529;SDS011;3298;42.688;23.366;2022-08-25T08:51:00;14.13;;;4.77;;
6529;SDS011;3298;42.688;23.366;2022-08-25T08:53:31;14.57;;;4.97;;
6529;SDS011;3298;42.688;23.366;2022-08-25T08:56:07;13.67;;;5.40;;
6529;SDS011;3298;42.688;23.366;2022-08-25T08:58:39;17.50;;;4.27;;
6529;SDS011;3298;42.688;23.366;2022-08-25T09:01:08;18.77;;;5.27;;
6529;SDS011;3298;42.688;23.366;2022-08-25T09:03:40;18.57;;;4.97;;
6529;SDS011;3298;42.688;23.366;2022-08-25T09:06:09;14.20;;;4.87;;
6529;SDS011;3298;42.688;23.366;2022-08-25T09:08:39;17.00;;;5.30;;
6529;SDS011;3298;42.688;23.366;2022-08-25T09:11:10;15.30;;;4.00;;
6529;SDS011;3298;42.688;23.366;2022-08-25T09:13:51;10.20;;;3.87;;
6529;SDS011;3298;42.688;23.366;2022-08-25T09:16:34;16.37;;;3.87;;
6529;SDS011;3298;42.688;23.366;2022-08-25T09:22:16;8.07;;;3.77;;
6529;SDS011;3298;42.688;23.366;2022-08-25T09:24:54;18.00;;;4.43;;
6529;SDS011;3298;42.688;23.366;2022-08-25T09:27:28;7.47;;;3.70;;
6529;SDS011;3298;42.688;23.366;2022-08-25T09:30:05;8.57;;;3.77;;
6529;SDS011;3298;42.688;23.366;2022-08-25T09:32:35;9.67;;;5.47;;
6529;SDS011;3298;42.688;23.366;2022-08-25T09:35:07;20.30;;;4.80;;
6529;SDS011;3298;42.688;23.366;2022-08-25T09:37:39;11.70;;;3.53;;
6529;SDS011;3298;42.688;23.366;2022-08-25T09:40:06;13.87;;;2.97;;
6529;SDS011;3298;42.688;23.366;2022-08-25T09:42:48;23.90;;;3.23;;
6529;SDS011;3298;42.688;23.366;2022-08-25T09:45:17;13.90;;;3.50;;
6529;SDS011;3298;42.688;23.366;2022-08-25T09:47:58;17.80;;;3.43;;
6529;SDS011;3298;42.688;23.366;2022-08-25T09:50:25;9.83;;;3.07;;
6529;SDS011;3298;42.688;23.366;2022-08-25T09:53:00;15.13;;;3.40;;
6529;SDS011;3298;42.688;23.366;2022-08-25T09:55:38;13.03;;;2.60;;
6529;SDS011;3298;42.688;23.366;2022-08-25T09:58:12;17.93;;;3.73;;
6529;SDS011;3298;42.688;23.366;2022-08-25T10:00:44;11.73;;;2.87;;
6529;SDS011;3298;42.688;23.366;2022-08-25T10:03:27;14.83;;;2.93;;
6529;SDS011;3298;42.688;23.366;2022-08-25T10:05:58;12.50;;;4.07;;
6529;SDS011;3298;42.688;23.366;2022-08-25T10:08:30;18.23;;;2.93;;
6529;SDS011;3298;42.688;23.366;2022-08-25T10:11:00;18.17;;;3.43;;
6529;SDS011;3298;42.688;23.366;2022-08-25T10:13:33;9.07;;;2.60;;
6529;SDS011;3298;42.688;23.366;2022-08-25T10:16:11;14.00;;;3.40;;
6529;SDS011;3298;42.688;23.366;2022-08-25T10:18:50;10.03;;;3.13;;
6529;SDS011;3298;42.688;23.366;2022-08-25T10:21:26;19.37;;;4.30;;
6529;SDS011;3298;42.688;23.366;2022-08-25T10:23:53;10.40;;;2.90;;
6529;SDS011;3298;42.688;23.366;2022-08-25T10:26:22;14.43;;;3.27;;
6529;SDS011;3298;42.688;23.366;2022-08-25T10:29:02;16.33;;;3.53;;
6529;SDS011;3298;42.688;23.366;2022-08-25T10:31:38;18.83;;;3.13;;
6529;SDS011;3298;42.688;23.366;2022-08-25T10:34:30;8.27;;;2.27;;
6529;SDS011;3298;42.688;23.366;2022-08-25T10:37:05;19.90;;;4.83;;
6529;SDS011;3298;42.688;23.366;2022-08-25T10:39:40;8.47;;;2.17;;
6529;SDS011;3298;42.688;23.366;2022-08-25T10:42:13;9.27;;;2.37;;
6529;SDS011;3298;42.688;23.366;2022-08-25T10:44:58;11.17;;;2.73;;
6529;SDS011;3298;42.688;23.366;2022-08-25T10:48:08;12.43;;;3.37;;
6529;SDS011;3298;42.688;23.366;2022-08-25T10:50:54;13.80;;;2.87;;
6529;SDS011;3298;42.688;23.366;2022-08-25T10:53:27;17.73;;;3.23;;
6529;SDS011;3298;42.688;23.366;2022-08-25T10:56:04;11.77;;;2.23;;
6529;SDS011;3298;42.688;23.366;2022-08-25T11:01:34;16.70;;;3.00;;
6529;SDS011;3298;42.688;23.366;2022-08-25T11:04:13;12.50;;;2.27;;
6529;SDS011;3298;42.688;23.366;2022-08-25T11:06:46;11.03;;;3.50;;
6529;SDS011;3298;42.688;23.366;2022-08-25T11:09:17;9.17;;;3.50;;
6529;SDS011;3298;42.688;23.366;2022-08-25T11:11:49;13.73;;;3.47;;
6529;SDS011;3298;42.688;23.366;2022-08-25T11:14:22;12.70;;;2.63;;
6529;SDS011;3298;42.688;23.366;2022-08-25T11:16:56;17.70;;;4.27;;
6529;SDS011;3298;42.688;23.366;2022-08-25T11:19:29;10.70;;;2.60;;
6529;SDS011;3298;42.688;23.366;2022-08-25T11:22:00;15.47;;;2.87;;
6529;SDS011;3298;42.688;23.366;2022-08-25T11:24:37;15.27;;;2.97;;
6529;SDS011;3298;42.688;23.366;2022-08-25T11:27:14;11.77;;;3.00;;
6529;SDS011;3298;42.688;23.366;2022-08-25T11:29:48;13.67;;;2.63;;
6529;SDS011;3298;42.688;23.366;2022-08-25T11:32:24;11.20;;;2.80;;
6529;SDS011;3298;42.688;23.366;2022-08-25T11:34:53;11.90;;;3.23;;
6529;SDS011;3298;42.688;23.366;2022-08-25T11:37:20;14.47;;;3.40;;
6529;SDS011;3298;42.688;23.366;2022-08-25T11:39:58;15.30;;;3.63;;
6529;SDS011;3298;42.688;23.366;2022-08-25T11:42:46;16.17;;;3.00;;
6529;SDS011;3298;42.688;23.366;2022-08-25T11:48:21;7.87;;;2.37;;
6529;SDS011;3298;42.688;23.366;2022-08-25T11:51:04;9.33;;;2.50;;
6529;SDS011;3298;42.688;23.366;2022-08-25T11:53:33;9.85;;;2.55;;
6529;SDS011;3298;42.688;23.366;2022-08-25T11:56:02;6.13;;;2.42;;
6529;SDS011;3298;42.688;23.366;2022-08-25T11:58:44;8.07;;;2.40;;
6529;SDS011;3298;42.688;23.366;2022-08-25T12:04:14;10.70;;;2.72;;
6529;SDS011;3298;42.688;23.366;2022-08-25T12:13:01;7.90;;;2.40;;
6529;SDS011;3298;42.688;23.366;2022-08-25T12:15:52;18.02;;;2.60;;
6529;SDS011;3298;42.688;23.366;2022-08-25T12:18:37;7.20;;;2.58;;
6529;SDS011;3298;42.688;23.366;2022-08-25T12:21:13;4.28;;;2.65;;
6529;SDS011;3298;42.688;23.366;2022-08-25T12:24:06;12.75;;;2.65;;
6529;SDS011;3298;42.688;23.366;2022-08-25T12:26:40;8.77;;;2.15;;
6529;SDS011;3298;42.688;23.366;2022-08-25T12:29:14;9.68;;;2.40;;
6529;SDS011;3298;42.688;23.366;2022-08-25T12:34:49;4.97;;;1.95;;
6529;SDS011;3298;42.688;23.366;2022-08-25T12:40:23;10.95;;;2.80;;
6529;SDS011;3298;42.688;23.366;2022-08-25T12:42:59;8.82;;;3.15;;
6529;SDS011;3298;42.688;23.366;2022-08-25T12:45:34;12.98;;;2.63;;
6529;SDS011;3298;42.688;23.366;2022-08-25T12:51:09;6.47;;;2.77;;
6529;SDS011;3298;42.688;23.366;2022-08-25T12:53:43;14.77;;;2.77;;
6529;SDS011;3298;42.688;23.366;2022-08-25T12:56:22;9.50;;;2.90;;
6529;SDS011;3298;42.688;23.366;2022-08-25T12:58:54;3.53;;;1.80;;
6529;SDS011;3298;42.688;23.366;2022-08-25T13:01:36;16.73;;;2.50;;
6529;SDS011;3298;42.688;23.366;2022-08-25T13:04:31;15.23;;;2.90;;
6529;SDS011;3298;42.688;23.366;2022-08-25T13:07:25;5.63;;;2.70;;
6529;SDS011;3298;42.688;23.366;2022-08-25T13:10:15;13.03;;;4.00;;
6529;SDS011;3298;42.688;23.366;2022-08-25T13:12:51;12.43;;;2.83;;
6529;SDS011;3298;42.688;23.366;2022-08-25T13:15:25;18.27;;;2.27;;
6529;SDS011;3298;42.688;23.366;2022-08-25T13:18:14;8.53;;;2.57;;
6529;SDS011;3298;42.688;23.366;2022-08-25T13:20:45;18.30;;;3.07;;
6529;SDS011;3298;42.688;23.366;2022-08-25T13:23:15;14.37;;;3.00;;
6529;SDS011;3298;42.688;23.366;2022-08-25T13:25:46;12.20;;;3.33;;
6529;SDS011;3298;42.688;23.366;2022-08-25T13:28:20;10.20;;;2.47;;
6529;SDS011;3298;42.688;23.366;2022-08-25T13:30:55;5.90;;;2.60;;
6529;SDS011;3298;42.688;23.366;2022-08-25T13:33:24;6.87;;;3.00;;
6529;SDS011;3298;42.688;23.366;2022-08-25T13:35:51;14.43;;;3.13;;
6529;SDS011;3298;42.688;23.366;2022-08-25T13:38:40;12.57;;;2.77;;
6529;SDS011;3298;42.688;23.366;2022-08-25T13:41:07;8.00;;;2.20;;
6529;SDS011;3298;42.688;23.366;2022-08-25T13:43:37;15.00;;;2.43;;
6529;SDS011;3298;42.688;23.366;2022-08-25T13:46:04;5.47;;;2.73;;
6529;SDS011;3298;42.688;23.366;2022-08-25T13:48:33;14.93;;;2.97;;
6529;SDS011;3298;42.688;23.366;2022-08-25T13:51:08;4.57;;;2.00;;
6529;SDS011;3298;42.688;23.366;2022-08-25T13:53:47;6.90;;;2.30;;
6529;SDS011;3298;42.688;23.366;2022-08-25T13:56:27;20.53;;;3.30;;
6529;SDS011;3298;42.688;23.366;2022-08-25T13:58:59;13.40;;;3.17;;
6529;SDS011;3298;42.688;23.366;2022-08-25T14:01:28;9.67;;;2.00;;
6529;SDS011;3298;42.688;23.366;2022-08-25T14:06:47;18.37;;;2.83;;
6529;SDS011;3298;42.688;23.366;2022-08-25T14:09:15;8.73;;;3.33;;
6529;SDS011;3298;42.688;23.366;2022-08-25T14:11:44;16.67;;;2.80;;
6529;SDS011;3298;42.688;23.366;2022-08-25T14:17:00;8.13;;;3.77;;
6529;SDS011;3298;42.688;23.366;2022-08-25T14:19:29;18.80;;;3.00;;
6529;SDS011;3298;42.688;23.366;2022-08-25T14:21:56;5.93;;;2.53;;
6529;SDS011;3298;42.688;23.366;2022-08-25T14:24:26;21.33;;;3.20;;
6529;SDS011;3298;42.688;23.366;2022-08-25T14:26:57;13.27;;;2.80;;
6529;SDS011;3298;42.688;23.366;2022-08-25T14:29:24;5.83;;;3.63;;
6529;SDS011;3298;42.688;23.366;2022-08-25T14:31:52;12.63;;;2.83;;
6529;SDS011;3298;42.688;23.366;2022-08-25T14:34:21;12.10;;;2.67;;
6529;SDS011;3298;42.688;23.366;2022-08-25T14:36:51;7.00;;;2.50;;
6529;SDS011;3298;42.688;23.366;2022-08-25T14:39:18;14.20;;;3.07;;
6529;SDS011;3298;42.688;23.366;2022-08-25T14:41:46;7.83;;;2.57;;
6529;SDS011;3298;42.688;23.366;2022-08-25T14:44:14;6.20;;;2.47;;
6529;SDS011;3298;42.688;23.366;2022-08-25T14:46:43;8.10;;;2.90;;
6529;SDS011;3298;42.688;23.366;2022-08-25T14:49:14;11.10;;;3.37;;
6529;SDS011;3298;42.688;23.366;2022-08-25T14:51:43;14.07;;;3.70;;
6529;SDS011;3298;42.688;23.366;2022-08-25T14:54:11;16.53;;;2.97;;
6529;SDS011;3298;42.688;23.366;2022-08-25T14:56:43;8.93;;;2.83;;
6529;SDS011;3298;42.688;23.366;2022-08-25T14:59:10;12.77;;;2.20;;
6529;SDS011;3298;42.688;23.366;2022-08-25T15:01:37;4.87;;;3.20;;
6529;SDS011;3298;42.688;23.366;2022-08-25T15:04:05;8.93;;;3.80;;
6529;SDS011;3298;42.688;23.366;2022-08-25T15:06:35;26.70;;;2.83;;
6529;SDS011;3298;42.688;23.366;2022-08-25T15:09:03;12.60;;;3.30;;
6529;SDS011;3298;42.688;23.366;2022-08-25T15:11:35;7.70;;;2.23;;
6529;SDS011;3298;42.688;23.366;2022-08-25T15:14:03;4.97;;;2.67;;
6529;SDS011;3298;42.688;23.366;2022-08-25T15:16:31;10.80;;;2.90;;
6529;SDS011;3298;42.688;23.366;2022-08-25T15:18:59;12.93;;;3.10;;
6529;SDS011;3298;42.688;23.366;2022-08-25T15:21:29;6.43;;;2.47;;
6529;SDS011;3298;42.688;23.366;2022-08-25T15:23:57;11.53;;;3.00;;
6529;SDS011;3298;42.688;23.366;2022-08-25T15:26:24;10.67;;;2.20;;
6529;SDS011;3298;42.688;23.366;2022-08-25T15:28:51;7.93;;;2.17;;
6529;SDS011;3298;42.688;23.366;2022-08-25T15:31:18;15.53;;;3.33;;
6529;SDS011;3298;42.688;23.366;2022-08-25T15:33:47;9.63;;;3.27;;
6529;SDS011;3298;42.688;23.366;2022-08-25T15:36:15;7.87;;;2.60;;
6529;SDS011;3298;42.688;23.366;2022-08-25T15:38:44;13.53;;;2.77;;
6529;SDS011;3298;42.688;23.366;2022-08-25T15:41:12;20.70;;;3.20;;
6529;SDS011;3298;42.688;23.366;2022-08-25T15:43:39;9.07;;;2.93;;